Time;durP1;ratioP1;P1;durP2;ratioP2;P2;SDS_P1;SDS_P2;PMS_P1;PMS_P2;Temp;Humidity;BMP_temperature;BMP_pressure;BME280_temperature;BME280_humidity;BME280_pressure;Samples;Min_cycle;Max_cycle;Signal;HPM_P1;HPM_P2
2024/04/01 00:02:00;;;;;;;;;;;12.30;99.90;;;;;;5077440;28;20000;-75
2024/04/01 00:04:26;;;;;;;;;;;12.40;99.90;;;;;;5043970;28;19939;-75
2024/04/01 00:06:52;;;;;;;;;;;12.30;99.90;;;;;;5062988;28;19920;-75
2024/04/01 00:09:17;;;;;;;;;;;12.30;99.90;;;;;;5044323;28;20392;-75
2024/04/01 00:11:43;;;;;;;;;;;12.30;99.90;;;;;;5068467;28;19951;-75
2024/04/01 00:14:08;;;;;;;;;;;12.30;99.90;;;;;;5065576;28;19995;-75
2024/04/01 00:16:34;;;;;;;;;;;12.30;99.90;;;;;;5044691;28;19924;-75
2024/04/01 00:19:00;;;;;;;;;;;12.30;99.90;;;;;;5027569;28;20015;-75
2024/04/01 00:21:25;;;;;;;;;;;12.20;99.90;;;;;;5043560;28;20262;-75
2024/04/01 00:23:56;;;;;;;;;;;12.10;99.90;;;;;;5043719;28;19912;-75
2024/04/01 00:26:22;;;;;;;;;;;12.20;99.90;;;;;;5067538;28;19929;-75
2024/04/01 00:28:48;;;;;;;;;;;12.10;99.90;;;;;;5049503;28;19986;-75
2024/04/01 00:31:13;;;;;;;;;;;12.10;99.90;;;;;;5061340;28;19924;-75
2024/04/01 00:33:39;;;;;;;;;;;12.00;99.90;;;;;;5059396;28;20591;-75
2024/04/01 00:36:06;;;;;;;;;;;12.00;99.90;;;;;;5065953;28;20017;-75
2024/04/01 00:38:31;;;;;;;;;;;12.00;99.90;;;;;;5047198;28;20408;-75
2024/04/01 00:40:57;;;;;;;;;;;12.00;99.90;;;;;;5039949;28;19912;-75
2024/04/01 00:43:25;;;;;;;;;;;11.90;99.90;;;;;;5052082;28;19926;-75
2024/04/01 00:45:51;;;;;;;;;;;11.90;99.90;;;;;;5059155;28;20267;-75
2024/04/01 00:48:16;;;;;;;;;;;11.90;99.90;;;;;;5066399;28;19916;-75
2024/04/01 00:50:43;;;;;;;;;;;11.90;99.90;;;;;;5074848;28;19953;-75
2024/04/01 00:53:09;;;;;;;;;;;11.90;99.90;;;;;;5042757;28;19913;-75
2024/04/01 00:55:34;;;;;;;;;;;11.90;99.90;;;;;;5074071;28;19920;-75
2024/04/01 00:58:00;;;;;;;;;;;11.90;99.90;;;;;;5078057;28;19985;-75
2024/04/01 01:00:26;;;;;;;;;;;11.90;99.90;;;;;;5058978;28;19924;-75
2024/04/01 01:02:55;;;;;;;;;;;11.90;99.90;;;;;;5036126;28;19916;-75
2024/04/01 01:05:20;;;;;;;;;;;11.90;99.90;;;;;;5055602;28;19913;-75
2024/04/01 01:07:46;;;;;;;;;;;11.90;99.90;;;;;;5076791;28;20486;-75
2024/04/01 01:10:12;;;;;;;;;;;11.90;99.90;;;;;;5046488;28;19913;-75
2024/04/01 01:12:38;;;;;;;;;;;11.80;99.90;;;;;;5048870;28;20336;-75
2024/04/01 01:15:04;;;;;;;;;;;11.80;99.90;;;;;;5059231;28;19924;-75
2024/04/01 01:17:30;;;;;;;;;;;11.80;99.90;;;;;;5025635;28;20006;-75
2024/04/01 01:19:56;;;;;;;;;;;11.80;99.90;;;;;;5077050;28;19954;-75
2024/04/01 01:22:37;;;;;;;;;;;11.80;99.90;;;;;;5043901;28;20323;-75
2024/04/01 01:25:09;;;;;;;;;;;11.80;99.90;;;;;;5057366;28;19920;-75
2024/04/01 01:27:35;;;;;;;;;;;11.70;99.90;;;;;;5031561;28;19928;-75
2024/04/01 01:30:03;;;;;;;;;;;11.70;99.90;;;;;;5072105;28;19946;-75
2024/04/01 01:32:30;;;;;;;;;;;11.70;99.90;;;;;;5064997;28;20157;-75
2024/04/01 01:34:55;;;;;;;;;;;11.60;99.90;;;;;;5029983;28;19917;-75
2024/04/01 01:37:21;;;;;;;;;;;11.60;99.90;;;;;;5093663;28;19947;-75
2024/04/01 01:39:47;;;;;;;;;;;11.60;99.90;;;;;;5065639;28;19912;-75
2024/04/01 01:42:13;;;;;;;;;;;11.50;99.90;;;;;;5074525;28;20252;-75
2024/04/01 01:44:38;;;;;;;;;;;11.50;99.90;;;;;;5057938;28;19926;-75
2024/04/01 01:47:04;;;;;;;;;;;11.50;99.90;;;;;;5060601;28;19920;-75
2024/04/01 01:49:30;;;;;;;;;;;11.50;99.90;;;;;;5065516;28;19955;-75
2024/04/01 01:51:56;;;;;;;;;;;11.50;99.90;;;;;;5089135;28;19912;-75
2024/04/01 01:54:21;;;;;;;;;;;11.50;99.90;;;;;;5051831;28;19917;-76
2024/04/01 01:56:47;;;;;;;;;;;11.50;99.90;;;;;;5022472;28;19939;-75
2024/04/01 01:59:12;;;;;;;;;;;11.50;99.90;;;;;;5055145;28;20012;-75
2024/04/01 02:01:38;;;;;;;;;;;11.50;99.90;;;;;;5081872;28;20020;-75
2024/04/01 02:04:04;;;;;;;;;;;11.50;99.90;;;;;;5061554;28;19952;-75
2024/04/01 02:06:29;;;;;;;;;;;11.50;99.90;;;;;;5074658;28;19957;-75
2024/04/01 02:08:55;;;;;;;;;;;11.40;99.90;;;;;;5069894;28;19916;-75
2024/04/01 02:11:21;;;;;;;;;;;11.50;99.90;;;;;;5069730;28;19916;-74
2024/04/01 02:13:46;;;;;;;;;;;11.40;99.90;;;;;;5078252;28;20003;-75
2024/04/01 02:16:12;;;;;;;;;;;11.40;99.90;;;;;;5053945;28;19928;-75
2024/04/01 02:18:38;;;;;;;;;;;11.40;99.90;;;;;;5049266;28;20395;-75
2024/04/01 02:21:03;;;;;;;;;;;11.40;99.90;;;;;;5040046;28;20361;-75
2024/04/01 02:23:31;;;;;;;;;;;11.40;99.90;;;;;;5036649;28;19927;-75
2024/04/01 02:26:00;;;;;;;;;;;11.40;99.90;;;;;;5045652;28;19951;-75
2024/04/01 02:28:26;;;;;;;;;;;11.40;99.90;;;;;;5040647;28;19935;-75
2024/04/01 02:30:52;;;;;;;;;;;11.40;99.90;;;;;;5075149;28;20494;-75
2024/04/01 02:33:17;;;;;;;;;;;11.40;99.90;;;;;;5054915;28;19959;-75
2024/04/01 02:35:43;;;;;;;;;;;11.40;99.90;;;;;;5054631;28;20010;-75
2024/04/01 02:38:09;;;;;;;;;;;11.50;99.90;;;;;;5074097;28;20253;-75
2024/04/01 02:40:34;;;;;;;;;;;11.40;99.90;;;;;;5058155;28;19932;-75
2024/04/01 02:43:00;;;;;;;;;;;11.50;99.90;;;;;;5040407;28;19924;-76
2024/04/01 02:45:28;;;;;;;;;;;11.50;99.90;;;;;;5057128;28;19916;-76
2024/04/01 02:47:54;;;;;;;;;;;11.50;99.90;;;;;;5047165;28;19925;-75
2024/04/01 02:50:19;;;;;;;;;;;11.50;99.90;;;;;;5035002;28;19989;-75
2024/04/01 02:52:47;;;;;;;;;;;11.50;99.90;;;;;;5039637;28;20015;-75
2024/04/01 02:55:13;;;;;;;;;;;11.50;99.90;;;;;;5065524;28;20521;-75
2024/04/01 02:57:39;;;;;;;;;;;11.50;99.90;;;;;;5073248;28;19916;-75
2024/04/01 03:00:05;;;;;;;;;;;11.40;99.90;;;;;;5073441;28;19928;-75
2024/04/01 03:02:33;;;;;;;;;;;11.40;99.90;;;;;;5023295;28;20709;-75
2024/04/01 03:04:58;;;;;;;;;;;11.30;99.90;;;;;;5051239;28;19917;-75
2024/04/01 03:07:24;;;;;;;;;;;11.40;99.90;;;;;;5053159;28;19917;-75
2024/04/01 03:09:54;;;;;;;;;;;11.30;99.90;;;;;;5048795;28;20382;-75
2024/04/01 03:12:19;;;;;;;;;;;11.30;99.90;;;;;;5054381;28;19997;-75
2024/04/01 03:14:45;;;;;;;;;;;11.20;99.90;;;;;;5075209;28;19979;-76
2024/04/01 03:17:11;;;;;;;;;;;11.10;99.90;;;;;;5042699;28;19916;-75
2024/04/01 03:19:37;;;;;;;;;;;11.10;99.90;;;;;;5062207;28;19963;-75
2024/04/01 03:22:03;;;;;;;;;;;11.10;99.90;;;;;;5056358;28;19960;-75
2024/04/01 03:24:29;;;;;;;;;;;11.00;99.90;;;;;;5059991;28;20009;-75
2024/04/01 03:26:54;;;;;;;;;;;11.00;99.90;;;;;;5036525;28;20499;-75
2024/04/01 03:29:21;;;;;;;;;;;11.00;99.90;;;;;;5055547;28;20364;-75
2024/04/01 03:31:46;;;;;;;;;;;11.00;99.90;;;;;;5046453;28;20262;-75
2024/04/01 03:34:12;;;;;;;;;;;11.00;99.90;;;;;;5067885;28;19916;-75
2024/04/01 03:36:38;;;;;;;;;;;10.90;99.90;;;;;;5056335;28;20366;-75
2024/04/01 03:39:08;;;;;;;;;;;10.90;99.90;;;;;;5073216;28;20008;-75
2024/04/01 03:41:34;;;;;;;;;;;10.90;99.90;;;;;;5068645;28;19917;-75
2024/04/01 03:44:00;;;;;;;;;;;10.90;99.90;;;;;;5060163;28;19921;-75
2024/04/01 03:46:25;;;;;;;;;;;10.90;99.90;;;;;;5036885;28;19913;-75
2024/04/01 03:48:51;;;;;;;;;;;10.80;99.90;;;;;;5059626;28;19921;-75
2024/04/01 03:51:16;;;;;;;;;;;10.80;99.90;;;;;;5056051;28;20380;-75
2024/04/01 03:53:42;;;;;;;;;;;10.80;99.90;;;;;;5042289;28;20617;-75
2024/04/01 03:56:09;;;;;;;;;;;10.80;99.90;;;;;;5049806;28;19916;-75
2024/04/01 03:58:35;;;;;;;;;;;10.80;99.90;;;;;;5065197;28;19917;-75
2024/04/01 04:01:01;;;;;;;;;;;10.80;99.90;;;;;;5072844;28;19925;-75
2024/04/01 04:03:27;;;;;;;;;;;10.80;99.90;;;;;;5083260;28;20329;-75
2024/04/01 04:05:54;;;;;;;;;;;10.80;99.90;;;;;;5052986;28;19943;-75
2024/04/01 04:08:19;;;;;;;;;;;10.90;99.90;;;;;;5052568;28;19935;-76
2024/04/01 04:10:45;;;;;;;;;;;10.90;99.90;;;;;;5032000;28;20011;-75
2024/04/01 04:13:11;;;;;;;;;;;10.80;99.90;;;;;;5055608;28;20275;-75
2024/04/01 04:15:37;;;;;;;;;;;10.80;99.90;;;;;;5034259;28;19921;-75
2024/04/01 04:18:03;;;;;;;;;;;10.80;99.90;;;;;;5051612;28;19916;-75
2024/04/01 04:20:29;;;;;;;;;;;10.80;99.90;;;;;;5052952;28;19913;-75
2024/04/01 04:22:55;;;;;;;;;;;10.80;99.90;;;;;;5059452;28;19927;-75
2024/04/01 04:25:24;;;;;;;;;;;10.80;99.90;;;;;;5072470;28;19920;-75
2024/04/01 04:27:49;;;;;;;;;;;10.80;99.90;;;;;;5032411;28;20044;-75
2024/04/01 04:30:15;;;;;;;;;;;10.80;99.90;;;;;;5051361;28;20404;-75
2024/04/01 04:32:40;;;;;;;;;;;10.80;99.90;;;;;;5069191;28;20265;-76
2024/04/01 04:35:08;;;;;;;;;;;10.80;99.90;;;;;;5050312;28;20245;-75
2024/04/01 04:37:35;;;;;;;;;;;10.80;99.90;;;;;;5029817;28;20654;-75
2024/04/01 04:40:02;;;;;;;;;;;10.90;99.90;;;;;;5029669;28;20004;-75
2024/04/01 04:42:28;;;;;;;;;;;10.90;99.90;;;;;;5052331;28;20274;-75
2024/04/01 04:44:54;;;;;;;;;;;10.90;99.90;;;;;;5054155;28;19912;-75
2024/04/01 04:47:19;;;;;;;;;;;10.90;99.90;;;;;;5052973;28;19917;-75
2024/04/01 04:49:45;;;;;;;;;;;10.90;99.90;;;;;;5047613;28;20337;-75
2024/04/01 04:52:10;;;;;;;;;;;10.80;99.90;;;;;;5055130;28;20017;-75
2024/04/01 04:54:36;;;;;;;;;;;10.80;99.90;;;;;;5055699;28;20029;-75
2024/04/01 04:57:03;;;;;;;;;;;10.80;99.90;;;;;;5055338;28;19916;-75
2024/04/01 04:59:33;;;;;;;;;;;10.80;99.90;;;;;;5041481;28;19946;-75
2024/04/01 05:02:06;;;;;;;;;;;10.80;99.90;;;;;;5030008;28;20547;-75
2024/04/01 05:04:32;;;;;;;;;;;10.90;99.90;;;;;;5055513;28;19913;-75
2024/04/01 05:06:58;;;;;;;;;;;10.90;99.90;;;;;;5052686;28;20392;-75
2024/04/01 05:09:23;;;;;;;;;;;10.90;99.90;;;;;;5041403;28;20047;-75
2024/04/01 05:11:49;;;;;;;;;;;10.90;99.90;;;;;;5052723;28;19923;-75
2024/04/01 05:14:15;;;;;;;;;;;11.00;99.90;;;;;;5081811;28;20329;-75
2024/04/01 05:16:41;;;;;;;;;;;11.00;99.90;;;;;;5054365;28;19920;-75
2024/04/01 05:19:07;;;;;;;;;;;11.00;99.90;;;;;;5054547;28;19917;-75
2024/04/01 05:21:33;;;;;;;;;;;11.00;99.90;;;;;;5037627;28;20495;-75
2024/04/01 05:23:58;;;;;;;;;;;11.10;99.90;;;;;;5055055;28;19917;-75
2024/04/01 05:26:24;;;;;;;;;;;11.10;99.90;;;;;;5045888;28;19917;-75
2024/04/01 05:28:50;;;;;;;;;;;11.10;99.90;;;;;;5034118;28;19921;-75
2024/04/01 05:31:15;;;;;;;;;;;11.10;99.90;;;;;;5047286;28;19913;-75
2024/04/01 05:33:41;;;;;;;;;;;11.10;99.90;;;;;;5032967;28;19917;-75
2024/04/01 05:36:07;;;;;;;;;;;11.20;99.90;;;;;;5018482;28;19993;-76
2024/04/01 05:38:33;;;;;;;;;;;11.20;99.90;;;;;;5036012;28;19989;-75
2024/04/01 05:40:58;;;;;;;;;;;11.20;99.90;;;;;;5038105;28;19913;-75
2024/04/01 05:43:24;;;;;;;;;;;11.20;99.90;;;;;;5068787;28;19970;-75
2024/04/01 05:45:49;;;;;;;;;;;11.20;99.90;;;;;;5043433;28;19924;-75
2024/04/01 05:48:16;;;;;;;;;;;11.30;99.90;;;;;;5021434;28;19920;-75
2024/04/01 05:50:45;;;;;;;;;;;11.20;99.90;;;;;;5051241;28;20245;-75
2024/04/01 05:53:11;;;;;;;;;;;11.20;99.90;;;;;;5044381;28;20525;-75
2024/04/01 05:55:40;;;;;;;;;;;11.30;99.90;;;;;;5042974;28;19951;-75
2024/04/01 05:58:06;;;;;;;;;;;11.30;99.90;;;;;;5068170;28;19952;-76
2024/04/01 06:00:32;;;;;;;;;;;11.10;99.90;;;;;;5038722;28;19925;-76
2024/04/01 06:02:58;;;;;;;;;;;11.10;99.90;;;;;;5033431;28;20227;-75
2024/04/01 06:05:23;;;;;;;;;;;11.10;99.90;;;;;;5020519;28;19967;-75
2024/04/01 06:07:49;;;;;;;;;;;11.20;99.90;;;;;;5036685;28;20035;-75
2024/04/01 06:10:15;;;;;;;;;;;11.20;99.90;;;;;;5034553;28;19983;-75
2024/04/01 06:12:40;;;;;;;;;;;11.20;99.90;;;;;;5022346;28;20589;-75
2024/04/01 06:15:06;;;;;;;;;;;11.20;99.90;;;;;;5028532;28;19921;-75
2024/04/01 06:17:32;;;;;;;;;;;11.20;99.90;;;;;;5017683;28;20016;-76
2024/04/01 06:19:57;;;;;;;;;;;11.30;99.90;;;;;;5014344;28;19914;-76
2024/04/01 06:22:23;;;;;;;;;;;11.20;99.90;;;;;;5048133;28;19917;-77
2024/04/01 06:24:50;;;;;;;;;;;11.10;99.90;;;;;;5024741;28;20627;-77
2024/04/01 06:27:16;;;;;;;;;;;11.20;99.90;;;;;;5029028;28;19917;-77
2024/04/01 06:29:41;;;;;;;;;;;11.20;99.90;;;;;;5014327;28;19928;-77
2024/04/01 06:32:07;;;;;;;;;;;11.20;99.90;;;;;;5039254;28;19974;-77
2024/04/01 06:34:32;;;;;;;;;;;11.20;99.90;;;;;;5014558;28;19924;-77
2024/04/01 06:36:58;;;;;;;;;;;11.20;99.90;;;;;;5023001;28;19952;-77
2024/04/01 06:39:24;;;;;;;;;;;11.20;99.90;;;;;;5047103;28;19921;-77
2024/04/01 06:41:50;;;;;;;;;;;11.10;99.90;;;;;;5036421;28;19921;-77
2024/04/01 06:44:16;;;;;;;;;;;11.20;99.90;;;;;;5033506;28;19917;-77
2024/04/01 06:46:41;;;;;;;;;;;11.20;99.90;;;;;;5034585;28;19921;-76
2024/04/01 06:49:07;;;;;;;;;;;11.20;99.90;;;;;;5034530;28;19963;-77
2024/04/01 06:51:32;;;;;;;;;;;11.20;99.90;;;;;;5034184;28;19948;-77
2024/04/01 06:53:58;;;;;;;;;;;11.20;99.90;;;;;;5001620;28;19917;-77
2024/04/01 06:56:24;;;;;;;;;;;11.20;99.90;;;;;;4986937;28;20384;-77
2024/04/01 06:58:49;;;;;;;;;;;11.30;99.90;;;;;;5020005;28;20330;-77
2024/04/01 07:01:15;;;;;;;;;;;11.30;99.90;;;;;;5049705;28;19925;-76
2024/04/01 07:03:41;;;;;;;;;;;11.30;99.90;;;;;;5047175;28;20011;-77
2024/04/01 07:06:06;;;;;;;;;;;11.30;99.90;;;;;;5063155;28;19913;-77
2024/04/01 07:08:32;;;;;;;;;;;11.30;99.90;;;;;;5046710;28;20285;-77
2024/04/01 07:10:58;;;;;;;;;;;11.40;99.90;;;;;;5026440;28;19916;-77
2024/04/01 07:13:23;;;;;;;;;;;11.40;99.90;;;;;;5033630;28;19924;-76
2024/04/01 07:15:49;;;;;;;;;;;11.40;99.90;;;;;;5032950;28;19947;-77
2024/04/01 07:18:15;;;;;;;;;;;11.40;99.90;;;;;;5047007;28;19967;-76
2024/04/01 07:20:41;;;;;;;;;;;11.40;99.90;;;;;;5040828;28;20237;-76
2024/04/01 07:23:07;;;;;;;;;;;11.50;99.90;;;;;;5053381;28;19956;-77
2024/04/01 07:25:33;;;;;;;;;;;11.50;99.90;;;;;;5070469;28;19916;-77
2024/04/01 07:27:58;;;;;;;;;;;11.50;99.90;;;;;;5032663;28;19920;-76
2024/04/01 07:30:24;;;;;;;;;;;11.50;99.90;;;;;;5026515;28;20329;-77
2024/04/01 07:32:50;;;;;;;;;;;11.50;99.90;;;;;;5017185;28;19932;-76
2024/04/01 07:35:15;;;;;;;;;;;11.50;99.90;;;;;;4989514;28;19924;-77
2024/04/01 07:37:41;;;;;;;;;;;11.50;99.90;;;;;;5044481;28;19972;-77
2024/04/01 07:40:07;;;;;;;;;;;11.50;99.90;;;;;;5034405;28;20028;-77
2024/04/01 07:42:33;;;;;;;;;;;11.50;99.90;;;;;;5045960;28;19912;-76
2024/04/01 07:44:59;;;;;;;;;;;11.60;99.90;;;;;;5052894;28;19924;-77
2024/04/01 07:47:25;;;;;;;;;;;11.50;99.90;;;;;;5034938;28;20337;-76
2024/04/01 07:49:51;;;;;;;;;;;11.60;99.90;;;;;;5054016;28;19947;-77
2024/04/01 07:52:16;;;;;;;;;;;11.60;99.90;;;;;;5039365;28;19960;-77
2024/04/01 07:54:42;;;;;;;;;;;11.60;99.90;;;;;;5034985;28;19920;-77
2024/04/01 07:57:07;;;;;;;;;;;11.60;99.90;;;;;;5051975;28;19939;-77
2024/04/01 07:59:33;;;;;;;;;;;11.70;99.90;;;;;;5020330;28;20321;-77
2024/04/01 08:02:00;;;;;;;;;;;11.70;99.90;;;;;;5052861;28;19917;-77
2024/04/01 08:04:27;;;;;;;;;;;11.70;99.90;;;;;;5047583;28;19913;-77
2024/04/01 08:06:53;;;;;;;;;;;11.70;99.90;;;;;;5052198;28;20312;-77
2024/04/01 08:09:18;;;;;;;;;;;11.70;99.90;;;;;;5039670;28;19960;-77
2024/04/01 08:11:47;;;;;;;;;;;11.70;99.90;;;;;;5032536;28;19956;-77
2024/04/01 08:14:13;;;;;;;;;;;11.70;99.90;;;;;;5033375;28;19913;-77
2024/04/01 08:16:39;;;;;;;;;;;11.70;99.90;;;;;;5071264;28;19920;-77
2024/04/01 08:19:05;;;;;;;;;;;11.80;99.90;;;;;;5047934;28;19924;-77
2024/04/01 08:21:31;;;;;;;;;;;11.70;99.90;;;;;;5039751;28;19920;-76
2024/04/01 08:23:56;;;;;;;;;;;11.80;99.90;;;;;;5045810;28;19917;-77
2024/04/01 08:26:22;;;;;;;;;;;11.80;99.90;;;;;;5052438;28;19924;-76
2024/04/01 08:28:50;;;;;;;;;;;11.70;99.90;;;;;;5026198;28;19917;-76
2024/04/01 08:31:16;;;;;;;;;;;11.80;99.90;;;;;;5052557;28;19917;-76
2024/04/01 08:33:41;;;;;;;;;;;11.80;99.90;;;;;;5057496;28;19924;-77
2024/04/01 08:36:07;;;;;;;;;;;11.80;99.90;;;;;;5053261;28;19917;-76
2024/04/01 08:38:33;;;;;;;;;;;11.80;99.90;;;;;;5017065;28;19965;-76
2024/04/01 08:41:00;;;;;;;;;;;11.80;99.90;;;;;;5056969;28;19917;-77
2024/04/01 08:43:55;;;;;;;;;;;11.90;99.90;;;;;;5043788;28;19917;-77
2024/04/01 08:46:21;;;;;;;;;;;11.90;99.90;;;;;;5042393;28;19913;-78
2024/04/01 08:48:48;;;;;;;;;;;11.90;99.90;;;;;;5048522;28;19924;-78
2024/04/01 08:51:14;;;;;;;;;;;12.00;99.90;;;;;;5034518;28;19933;-79
2024/04/01 08:53:42;;;;;;;;;;;12.10;99.90;;;;;;5037628;28;20246;-78
2024/04/01 08:56:08;;;;;;;;;;;12.10;99.90;;;;;;5020369;28;19917;-79
2024/04/01 08:58:34;;;;;;;;;;;12.10;99.90;;;;;;5048804;28;20357;-78
2024/04/01 09:01:00;;;;;;;;;;;12.20;99.90;;;;;;5042138;28;20014;-78
2024/04/01 09:03:26;;;;;;;;;;;12.10;99.90;;;;;;5040018;28;19994;-78
2024/04/01 09:05:54;;;;;;;;;;;12.20;99.90;;;;;;5028077;28;19920;-78
2024/04/01 09:08:20;;;;;;;;;;;12.20;99.90;;;;;;5025259;28;19916;-78
2024/04/01 09:10:46;;;;;;;;;;;12.20;99.90;;;;;;5023293;28;20027;-78
2024/04/01 09:13:13;;;;;;;;;;;12.20;99.90;;;;;;5038341;28;20007;-77
2024/04/01 09:15:40;;;;;;;;;;;12.30;99.90;;;;;;5055348;28;20307;-77
2024/04/01 09:18:10;;;;;;;;;;;12.20;99.90;;;;;;5063770;28;19917;-77
2024/04/01 09:20:36;;;;;;;;;;;12.10;99.90;;;;;;5047380;28;19913;-77
2024/04/01 09:23:01;;;;;;;;;;;12.10;99.90;;;;;;5045373;28;20245;-77
2024/04/01 09:25:27;;;;;;;;;;;12.10;99.90;;;;;;5048217;28;19921;-78
2024/04/01 09:27:53;;;;;;;;;;;12.00;99.90;;;;;;5055442;28;19917;-79
2024/04/01 09:30:18;;;;;;;;;;;11.80;99.90;;;;;;5066474;28;20003;-77
2024/04/01 09:32:44;;;;;;;;;;;11.80;99.90;;;;;;5075432;28;19916;-77
2024/04/01 09:35:10;;;;;;;;;;;11.70;99.90;;;;;;5056257;28;19917;-79
2024/04/01 09:37:36;;;;;;;;;;;11.70;99.90;;;;;;5054993;28;19920;-79
2024/04/01 09:40:02;;;;;;;;;;;11.80;99.90;;;;;;5052930;28;19917;-78
2024/04/01 09:42:28;;;;;;;;;;;11.70;99.90;;;;;;5046287;28;19927;-77
2024/04/01 09:44:53;;;;;;;;;;;11.70;99.90;;;;;;5040610;28;19916;-77
2024/04/01 09:47:19;;;;;;;;;;;11.70;99.90;;;;;;5038446;28;19944;-77
2024/04/01 09:49:45;;;;;;;;;;;11.70;99.90;;;;;;5054973;28;19952;-77
2024/04/01 09:52:11;;;;;;;;;;;11.70;99.90;;;;;;5038081;28;19963;-77
2024/04/01 09:54:37;;;;;;;;;;;11.80;99.90;;;;;;5039394;28;19917;-77
2024/04/01 09:57:19;;;;;;;;;;;11.80;99.90;;;;;;5037921;28;19928;-77
2024/04/01 09:59:44;;;;;;;;;;;11.90;99.90;;;;;;5044024;28;19921;-78
2024/04/01 10:02:20;;;;;;;;;;;12.00;99.90;;;;;;5040027;28;19971;-77
2024/04/01 10:05:05;;;;;;;;;;;12.10;99.90;;;;;;5037290;28;19963;-77
2024/04/01 10:07:43;;;;;;;;;;;12.10;99.90;;;;;;5035934;28;19917;-78
2024/04/01 10:10:14;;;;;;;;;;;12.20;99.90;;;;;;5056461;28;19966;-78
2024/04/01 10:13:06;;;;;;;;;;;12.30;99.90;;;;;;5054949;28;20318;-78
2024/04/01 10:15:51;;;;;;;;;;;12.30;99.90;;;;;;5028314;28;19917;-78
2024/04/01 10:18:37;;;;;;;;;;;12.40;99.90;;;;;;5073506;28;20329;-78
2024/04/01 10:21:12;;;;;;;;;;;12.40;99.90;;;;;;5051710;28;20372;-78
2024/04/01 10:23:38;;;;;;;;;;;12.50;99.90;;;;;;5071773;28;19974;-78
2024/04/01 10:26:19;;;;;;;;;;;12.50;99.90;;;;;;5059131;28;19921;-77
2024/04/01 10:28:50;;;;;;;;;;;12.50;99.90;;;;;;5065311;28;19913;-77
2024/04/01 10:31:18;;;;;;;;;;;12.50;99.90;;;;;;5068066;28;19917;-77
2024/04/01 10:33:49;;;;;;;;;;;12.50;99.90;;;;;;5052358;28;19927;-78
2024/04/01 10:36:25;;;;;;;;;;;12.50;99.90;;;;;;5044990;28;19921;-78
2024/04/01 10:39:10;;;;;;;;;;;12.50;99.90;;;;;;5049385;28;19924;-77
2024/04/01 10:41:40;;;;;;;;;;;12.50;99.90;;;;;;5065372;28;19916;-77
2024/04/01 10:44:21;;;;;;;;;;;12.50;99.90;;;;;;5034154;28;19917;-77
2024/04/01 10:46:53;;;;;;;;;;;12.50;99.90;;;;;;5058479;28;19952;-78
2024/04/01 10:49:37;;;;;;;;;;;12.40;99.90;;;;;;5063013;28;19920;-76
2024/04/01 10:52:09;;;;;;;;;;;12.50;99.90;;;;;;5046466;28;19920;-76
2024/04/01 10:55:01;;;;;;;;;;;12.40;99.90;;;;;;5055272;28;19927;-76
2024/04/01 10:57:46;;;;;;;;;;;12.50;99.90;;;;;;5023369;28;19999;-76
2024/04/01 11:00:16;;;;;;;;;;;12.40;99.90;;;;;;5034209;28;20256;-77
2024/04/01 11:02:51;;;;;;;;;;;12.50;99.90;;;;;;5035772;28;19952;-77
2024/04/01 11:05:35;;;;;;;;;;;12.40;99.90;;;;;;5030866;28;19940;-78
2024/04/01 11:08:03;;;;;;;;;;;12.40;99.90;;;;;;5017636;28;19917;-78
2024/04/01 11:10:47;;;;;;;;;;;12.40;99.90;;;;;;5034733;28;20322;-77
2024/04/01 11:13:17;;;;;;;;;;;12.40;99.90;;;;;;5034340;28;19925;-78
2024/04/01 11:15:42;;;;;;;;;;;12.40;99.90;;;;;;5032205;28;20055;-78
2024/04/01 11:18:14;;;;;;;;;;;12.40;99.90;;;;;;5014215;28;20333;-77
2024/04/01 11:20:41;;;;;;;;;;;12.30;99.90;;;;;;5045928;28;19974;-78
2024/04/01 11:23:26;;;;;;;;;;;12.30;99.90;;;;;;5030912;28;20310;-78
2024/04/01 11:26:04;;;;;;;;;;;12.30;99.90;;;;;;4983350;28;19970;-78
2024/04/01 11:28:51;;;;;;;;;;;12.30;99.90;;;;;;5026217;28;19917;-78
2024/04/01 11:31:17;;;;;;;;;;;12.20;99.90;;;;;;5029710;28;19996;-77
2024/04/01 11:33:56;;;;;;;;;;;12.20;99.90;;;;;;5021080;28;20405;-78
2024/04/01 11:36:34;;;;;;;;;;;12.10;99.90;;;;;;5033801;28;20210;-77
2024/04/01 11:38:59;;;;;;;;;;;12.20;99.90;;;;;;5016212;28;19913;-78
2024/04/01 11:41:25;;;;;;;;;;;12.20;99.90;;;;;;5038626;28;20241;-77
2024/04/01 11:43:50;;;;;;;;;;;12.20;99.90;;;;;;5022037;28;19921;-77
2024/04/01 11:46:16;;;;;;;;;;;12.10;99.90;;;;;;5031243;28;20507;-77
2024/04/01 11:48:42;;;;;;;;;;;12.00;99.90;;;;;;5018512;28;19914;-76
2024/04/01 11:51:09;;;;;;;;;;;12.00;99.90;;;;;;5034495;28;20347;-77
2024/04/01 11:53:38;;;;;;;;;;;12.00;99.90;;;;;;5044461;28;19944;-76
2024/04/01 11:56:04;;;;;;;;;;;11.90;99.90;;;;;;4999189;28;20021;-77
2024/04/01 11:58:29;;;;;;;;;;;11.90;99.90;;;;;;5016523;28;19963;-77
2024/04/01 12:00:56;;;;;;;;;;;11.90;99.90;;;;;;5033362;28;20037;-77
2024/04/01 12:03:21;;;;;;;;;;;11.90;99.90;;;;;;5052306;28;19917;-77
2024/04/01 12:05:48;;;;;;;;;;;11.80;99.90;;;;;;5019706;28;20252;-78
2024/04/01 12:08:20;;;;;;;;;;;11.80;99.90;;;;;;5037004;28;20017;-79
2024/04/01 12:10:46;;;;;;;;;;;11.60;99.90;;;;;;5020403;28;20047;-77
2024/04/01 12:13:12;;;;;;;;;;;11.60;99.90;;;;;;5055206;28;19951;-78
2024/04/01 12:15:38;;;;;;;;;;;11.60;99.90;;;;;;5051200;28;20542;-78
2024/04/01 12:18:08;;;;;;;;;;;11.60;99.90;;;;;;5038384;28;20003;-76
2024/04/01 12:20:34;;;;;;;;;;;11.70;99.90;;;;;;5030953;28;19913;-77
2024/04/01 12:23:04;;;;;;;;;;;11.70;99.90;;;;;;5053457;28;20332;-77
2024/04/01 12:25:30;;;;;;;;;;;11.60;99.90;;;;;;5053653;28;19999;-77
2024/04/01 12:27:57;;;;;;;;;;;11.60;99.90;;;;;;5016751;28;20079;-77
2024/04/01 12:30:23;;;;;;;;;;;11.50;99.90;;;;;;5029183;28;19916;-77
2024/04/01 12:32:48;;;;;;;;;;;11.50;99.90;;;;;;5069515;28;20352;-77
2024/04/01 12:35:14;;;;;;;;;;;11.60;99.90;;;;;;5035831;28;19925;-77
2024/04/01 12:37:40;;;;;;;;;;;11.60;99.90;;;;;;5052396;28;19920;-77
2024/04/01 12:40:06;;;;;;;;;;;11.60;99.90;;;;;;5045687;28;20397;-78
2024/04/01 12:42:32;;;;;;;;;;;11.40;99.90;;;;;;5037328;28;19921;-77
2024/04/01 12:44:59;;;;;;;;;;;11.40;99.90;;;;;;5036025;28;20648;-77
2024/04/01 12:47:26;;;;;;;;;;;11.40;99.90;;;;;;5048239;28;19932;-77
2024/04/01 12:49:51;;;;;;;;;;;11.50;99.90;;;;;;5032857;28;19995;-77
2024/04/01 12:52:18;;;;;;;;;;;11.50;99.90;;;;;;5047449;28;20397;-77
2024/04/01 12:54:49;;;;;;;;;;;11.40;99.90;;;;;;5044712;28;20004;-78
2024/04/01 12:57:38;;;;;;;;;;;11.40;99.90;;;;;;5048810;28;19956;-77
2024/04/01 13:00:05;;;;;;;;;;;11.40;99.90;;;;;;5052291;28;19936;-78
2024/04/01 13:02:38;;;;;;;;;;;11.40;99.90;;;;;;5059883;28;19921;-77
2024/04/01 13:05:17;;;;;;;;;;;11.40;99.90;;;;;;5053674;28;19921;-77
2024/04/01 13:07:46;;;;;;;;;;;11.50;99.90;;;;;;5058173;28;19924;-78
2024/04/01 13:10:23;;;;;;;;;;;11.50;99.90;;;;;;5061625;28;19963;-77
2024/04/01 13:12:51;;;;;;;;;;;11.40;99.90;;;;;;5022253;28;19930;-77
2024/04/01 13:15:22;;;;;;;;;;;11.20;99.90;;;;;;5069721;28;19952;-76
2024/04/01 13:17:51;;;;;;;;;;;11.20;99.90;;;;;;5039103;28;19913;-77
2024/04/01 13:20:37;;;;;;;;;;;11.10;99.90;;;;;;5042744;28;19971;-77
2024/04/01 13:23:02;;;;;;;;;;;11.20;99.90;;;;;;5062344;28;19913;-76
2024/04/01 13:25:30;;;;;;;;;;;11.10;99.90;;;;;;5052556;28;19924;-77
2024/04/01 13:28:02;;;;;;;;;;;11.10;99.90;;;;;;5026049;28;20251;-77
2024/04/01 13:30:29;;;;;;;;;;;11.10;99.90;;;;;;5025456;28;19943;-77
2024/04/01 13:33:03;;;;;;;;;;;11.20;99.90;;;;;;5039422;28;19998;-77
2024/04/01 13:35:38;;;;;;;;;;;11.20;99.90;;;;;;5037296;28;19925;-77
2024/04/01 13:38:03;;;;;;;;;;;11.30;99.90;;;;;;5053934;28;19927;-77
2024/04/01 13:40:48;;;;;;;;;;;11.20;99.90;;;;;;5055940;28;19917;-77
2024/04/01 13:43:23;;;;;;;;;;;11.20;99.90;;;;;;5059746;28;19928;-77
2024/04/01 13:46:09;;;;;;;;;;;11.20;99.90;;;;;;5027637;28;19983;-77
2024/04/01 13:48:41;;;;;;;;;;;11.10;99.90;;;;;;5052200;28;21651;-77
2024/04/01 13:51:06;;;;;;;;;;;11.20;99.90;;;;;;5057400;28;19912;-77
2024/04/01 13:53:44;;;;;;;;;;;11.20;99.90;;;;;;5080039;28;19917;-77
2024/04/01 13:56:25;;;;;;;;;;;11.20;99.90;;;;;;5026165;28;20424;-77
2024/04/01 13:59:07;;;;;;;;;;;11.10;99.90;;;;;;5038360;28;19916;-77
2024/04/01 14:01:38;;;;;;;;;;;11.10;99.90;;;;;;5066412;28;19931;-77
2024/04/01 14:04:12;;;;;;;;;;;11.00;99.90;;;;;;5054725;28;19921;-77
2024/04/01 14:06:43;;;;;;;;;;;11.00;99.90;;;;;;5073279;28;20551;-77
2024/04/01 14:09:11;;;;;;;;;;;11.00;99.90;;;;;;5040264;28;19966;-77
2024/04/01 14:11:49;;;;;;;;;;;11.00;99.90;;;;;;5050594;28;19956;-77
2024/04/01 14:14:18;;;;;;;;;;;10.90;99.90;;;;;;5032523;28;19948;-77
2024/04/01 14:16:52;;;;;;;;;;;10.90;99.90;;;;;;5080403;28;19921;-77
2024/04/01 14:19:34;;;;;;;;;;;10.80;99.90;;;;;;5060991;28;19948;-77
2024/04/01 14:21:59;;;;;;;;;;;10.80;99.90;;;;;;5043246;28;20693;-76